sensor_id;sensor_type;location;lat;lon;timestamp;P1;durP1;ratioP1;P2;durP2;ratioP2
15933;SDS011;8066;48.776;11.384;2022-07-25T00:01:50;6.13;;;5.15;;
15933;SDS011;8066;48.776;11.384;2022-07-25T00:04:18;7.00;;;5.28;;
15933;SDS011;8066;48.776;11.384;2022-07-25T00:06:45;7.13;;;5.03;;
15933;SDS011;8066;48.776;11.384;2022-07-25T00:09:12;5.85;;;4.72;;
15933;SDS011;8066;48.776;11.384;2022-07-25T00:11:39;6.10;;;5.15;;
15933;SDS011;8066;48.776;11.384;2022-07-25T00:14:06;6.55;;;5.50;;
15933;SDS011;8066;48.776;11.384;2022-07-25T00:16:33;5.93;;;5.18;;
15933;SDS011;8066;48.776;11.384;2022-07-25T00:19:00;5.75;;;5.00;;
15933;SDS011;8066;48.776;11.384;2022-07-25T00:21:28;6.80;;;5.47;;
15933;SDS011;8066;48.776;11.384;2022-07-25T00:23:55;7.03;;;5.30;;
15933;SDS011;8066;48.776;11.384;2022-07-25T00:26:22;5.53;;;4.65;;
15933;SDS011;8066;48.776;11.384;2022-07-25T00:28:49;6.65;;;5.20;;
15933;SDS011;8066;48.776;11.384;2022-07-25T00:31:16;7.88;;;5.18;;
15933;SDS011;8066;48.776;11.384;2022-07-25T00:33:43;5.68;;;5.07;;
15933;SDS011;8066;48.776;11.384;2022-07-25T00:36:09;7.95;;;5.40;;
15933;SDS011;8066;48.776;11.384;2022-07-25T00:38:37;7.10;;;5.55;;
15933;SDS011;8066;48.776;11.384;2022-07-25T00:41:04;6.85;;;5.32;;
15933;SDS011;8066;48.776;11.384;2022-07-25T00:43:31;7.63;;;5.80;;
15933;SDS011;8066;48.776;11.384;2022-07-25T00:45:58;7.25;;;5.38;;
15933;SDS011;8066;48.776;11.384;2022-07-25T00:48:25;7.90;;;5.53;;
15933;SDS011;8066;48.776;11.384;2022-07-25T00:50:53;6.22;;;5.45;;
15933;SDS011;8066;48.776;11.384;2022-07-25T00:53:21;6.50;;;4.85;;
15933;SDS011;8066;48.776;11.384;2022-07-25T00:55:49;8.63;;;5.72;;
15933;SDS011;8066;48.776;11.384;2022-07-25T00:58:17;8.57;;;5.40;;
15933;SDS011;8066;48.776;11.384;2022-07-25T01:00:44;6.93;;;5.13;;
15933;SDS011;8066;48.776;11.384;2022-07-25T01:03:11;7.18;;;5.13;;
15933;SDS011;8066;48.776;11.384;2022-07-25T01:05:39;5.85;;;4.88;;
15933;SDS011;8066;48.776;11.384;2022-07-25T01:08:05;8.57;;;5.53;;
15933;SDS011;8066;48.776;11.384;2022-07-25T01:10:34;6.78;;;5.47;;
15933;SDS011;8066;48.776;11.384;2022-07-25T01:13:02;6.57;;;5.35;;
15933;SDS011;8066;48.776;11.384;2022-07-25T01:15:30;5.97;;;4.90;;
15933;SDS011;8066;48.776;11.384;2022-07-25T01:17:57;6.57;;;5.20;;
15933;SDS011;8066;48.776;11.384;2022-07-25T01:20:26;7.13;;;5.75;;
15933;SDS011;8066;48.776;11.384;2022-07-25T01:22:55;7.32;;;5.57;;
15933;SDS011;8066;48.776;11.384;2022-07-25T01:25:22;6.47;;;5.13;;
15933;SDS011;8066;48.776;11.384;2022-07-25T01:27:51;7.80;;;5.15;;
15933;SDS011;8066;48.776;11.384;2022-07-25T01:30:20;6.35;;;5.10;;
15933;SDS011;8066;48.776;11.384;2022-07-25T01:32:49;6.53;;;5.30;;
15933;SDS011;8066;48.776;11.384;2022-07-25T01:35:16;6.57;;;5.32;;
15933;SDS011;8066;48.776;11.384;2022-07-25T01:37:45;8.77;;;5.97;;
15933;SDS011;8066;48.776;11.384;2022-07-25T01:40:12;7.13;;;5.50;;
15933;SDS011;8066;48.776;11.384;2022-07-25T01:42:39;6.70;;;5.35;;
15933;SDS011;8066;48.776;11.384;2022-07-25T01:45:07;6.80;;;5.35;;
15933;SDS011;8066;48.776;11.384;2022-07-25T01:47:35;7.63;;;5.55;;
15933;SDS011;8066;48.776;11.384;2022-07-25T01:50:03;7.20;;;5.60;;
15933;SDS011;8066;48.776;11.384;2022-07-25T01:52:31;6.93;;;5.32;;
15933;SDS011;8066;48.776;11.384;2022-07-25T01:54:59;6.80;;;5.22;;
15933;SDS011;8066;48.776;11.384;2022-07-25T01:57:26;7.68;;;6.00;;
15933;SDS011;8066;48.776;11.384;2022-07-25T01:59:53;6.80;;;5.18;;
15933;SDS011;8066;48.776;11.384;2022-07-25T02:02:20;6.72;;;5.35;;
15933;SDS011;8066;48.776;11.384;2022-07-25T02:04:47;6.78;;;5.65;;
15933;SDS011;8066;48.776;11.384;2022-07-25T02:07:13;6.18;;;4.90;;
15933;SDS011;8066;48.776;11.384;2022-07-25T02:09:40;6.32;;;4.88;;
15933;SDS011;8066;48.776;11.384;2022-07-25T02:12:09;8.20;;;5.38;;
15933;SDS011;8066;48.776;11.384;2022-07-25T02:14:36;6.65;;;5.43;;
15933;SDS011;8066;48.776;11.384;2022-07-25T02:17:03;8.25;;;6.03;;
15933;SDS011;8066;48.776;11.384;2022-07-25T02:19:30;7.30;;;5.60;;
15933;SDS011;8066;48.776;11.384;2022-07-25T02:21:57;6.63;;;5.45;;
15933;SDS011;8066;48.776;11.384;2022-07-25T02:24:24;6.82;;;5.32;;
15933;SDS011;8066;48.776;11.384;2022-07-25T02:26:51;7.65;;;5.88;;
15933;SDS011;8066;48.776;11.384;2022-07-25T02:29:19;7.88;;;5.30;;
15933;SDS011;8066;48.776;11.384;2022-07-25T02:31:46;7.07;;;5.45;;
15933;SDS011;8066;48.776;11.384;2022-07-25T02:34:13;6.47;;;5.40;;
15933;SDS011;8066;48.776;11.384;2022-07-25T02:36:40;7.63;;;5.88;;
15933;SDS011;8066;48.776;11.384;2022-07-25T02:39:08;7.38;;;6.03;;
15933;SDS011;8066;48.776;11.384;2022-07-25T02:41:35;7.25;;;5.95;;
15933;SDS011;8066;48.776;11.384;2022-07-25T02:44:02;11.27;;;5.97;;
15933;SDS011;8066;48.776;11.384;2022-07-25T02:46:31;7.82;;;6.22;;
15933;SDS011;8066;48.776;11.384;2022-07-25T02:48:58;7.53;;;6.28;;
15933;SDS011;8066;48.776;11.384;2022-07-25T02:51:25;8.35;;;6.13;;
15933;SDS011;8066;48.776;11.384;2022-07-25T02:53:52;8.57;;;6.28;;
15933;SDS011;8066;48.776;11.384;2022-07-25T02:56:19;6.97;;;5.70;;
15933;SDS011;8066;48.776;11.384;2022-07-25T02:58:46;8.20;;;5.53;;
15933;SDS011;8066;48.776;11.384;2022-07-25T03:01:13;7.10;;;5.63;;
15933;SDS011;8066;48.776;11.384;2022-07-25T03:03:41;7.53;;;5.43;;
15933;SDS011;8066;48.776;11.384;2022-07-25T03:06:08;6.50;;;5.30;;
15933;SDS011;8066;48.776;11.384;2022-07-25T03:08:35;6.18;;;5.50;;
15933;SDS011;8066;48.776;11.384;2022-07-25T03:11:02;6.55;;;5.50;;
15933;SDS011;8066;48.776;11.384;2022-07-25T03:13:28;7.05;;;5.55;;
15933;SDS011;8066;48.776;11.384;2022-07-25T03:15:57;7.47;;;6.20;;
15933;SDS011;8066;48.776;11.384;2022-07-25T03:18:23;7.65;;;5.90;;
15933;SDS011;8066;48.776;11.384;2022-07-25T03:20:52;7.50;;;6.30;;
15933;SDS011;8066;48.776;11.384;2022-07-25T03:23:18;7.90;;;5.80;;
15933;SDS011;8066;48.776;11.384;2022-07-25T03:25:45;6.72;;;5.57;;
15933;SDS011;8066;48.776;11.384;2022-07-25T03:28:12;7.15;;;5.65;;
15933;SDS011;8066;48.776;11.384;2022-07-25T03:30:39;8.70;;;5.57;;
15933;SDS011;8066;48.776;11.384;2022-07-25T03:33:06;6.93;;;5.50;;
15933;SDS011;8066;48.776;11.384;2022-07-25T03:35:34;6.47;;;5.45;;
15933;SDS011;8066;48.776;11.384;2022-07-25T03:38:04;7.75;;;5.95;;
15933;SDS011;8066;48.776;11.384;2022-07-25T03:40:31;6.65;;;5.57;;
15933;SDS011;8066;48.776;11.384;2022-07-25T03:42:58;9.65;;;5.70;;
15933;SDS011;8066;48.776;11.384;2022-07-25T03:45:25;6.97;;;5.75;;
15933;SDS011;8066;48.776;11.384;2022-07-25T03:47:52;9.10;;;5.88;;
15933;SDS011;8066;48.776;11.384;2022-07-25T03:50:18;7.32;;;6.07;;
15933;SDS011;8066;48.776;11.384;2022-07-25T03:52:45;9.73;;;6.20;;
15933;SDS011;8066;48.776;11.384;2022-07-25T03:55:14;10.65;;;6.10;;
15933;SDS011;8066;48.776;11.384;2022-07-25T03:57:40;6.97;;;5.40;;
15933;SDS011;8066;48.776;11.384;2022-07-25T04:00:08;9.95;;;6.10;;
15933;SDS011;8066;48.776;11.384;2022-07-25T04:02:37;8.38;;;6.03;;
15933;SDS011;8066;48.776;11.384;2022-07-25T04:05:04;6.85;;;5.53;;
15933;SDS011;8066;48.776;11.384;2022-07-25T04:07:32;7.03;;;5.60;;
15933;SDS011;8066;48.776;11.384;2022-07-25T04:10:00;8.05;;;5.65;;
15933;SDS011;8066;48.776;11.384;2022-07-25T04:12:28;7.85;;;6.07;;
15933;SDS011;8066;48.776;11.384;2022-07-25T04:14:54;7.30;;;5.88;;
15933;SDS011;8066;48.776;11.384;2022-07-25T04:17:24;8.57;;;6.18;;
15933;SDS011;8066;48.776;11.384;2022-07-25T04:19:51;7.22;;;6.25;;
15933;SDS011;8066;48.776;11.384;2022-07-25T04:22:17;6.70;;;5.68;;
15933;SDS011;8066;48.776;11.384;2022-07-25T04:24:44;8.43;;;5.95;;
15933;SDS011;8066;48.776;11.384;2022-07-25T04:27:11;7.38;;;5.93;;
15933;SDS011;8066;48.776;11.384;2022-07-25T04:29:39;7.00;;;5.68;;
15933;SDS011;8066;48.776;11.384;2022-07-25T04:32:06;7.18;;;6.00;;
15933;SDS011;8066;48.776;11.384;2022-07-25T04:34:33;7.03;;;5.75;;
15933;SDS011;8066;48.776;11.384;2022-07-25T04:37:00;6.45;;;5.68;;
15933;SDS011;8066;48.776;11.384;2022-07-25T04:39:27;7.32;;;5.80;;
15933;SDS011;8066;48.776;11.384;2022-07-25T04:41:54;7.10;;;5.50;;
15933;SDS011;8066;48.776;11.384;2022-07-25T04:44:21;7.55;;;5.55;;
15933;SDS011;8066;48.776;11.384;2022-07-25T04:46:49;6.10;;;5.43;;
15933;SDS011;8066;48.776;11.384;2022-07-25T04:49:16;6.50;;;5.57;;
15933;SDS011;8066;48.776;11.384;2022-07-25T04:51:43;7.90;;;5.05;;
15933;SDS011;8066;48.776;11.384;2022-07-25T04:54:10;6.80;;;5.25;;
15933;SDS011;8066;48.776;11.384;2022-07-25T04:56:37;6.35;;;5.22;;
15933;SDS011;8066;48.776;11.384;2022-07-25T04:59:04;6.70;;;5.30;;
15933;SDS011;8066;48.776;11.384;2022-07-25T05:01:30;8.05;;;5.82;;
15933;SDS011;8066;48.776;11.384;2022-07-25T05:03:59;7.93;;;5.70;;
15933;SDS011;8066;48.776;11.384;2022-07-25T05:06:25;8.55;;;5.63;;
15933;SDS011;8066;48.776;11.384;2022-07-25T05:08:52;8.27;;;5.57;;
15933;SDS011;8066;48.776;11.384;2022-07-25T05:11:19;7.28;;;5.57;;
15933;SDS011;8066;48.776;11.384;2022-07-25T05:13:46;7.60;;;6.13;;
15933;SDS011;8066;48.776;11.384;2022-07-25T05:16:13;6.80;;;5.53;;
15933;SDS011;8066;48.776;11.384;2022-07-25T05:18:40;8.38;;;6.35;;
15933;SDS011;8066;48.776;11.384;2022-07-25T05:21:09;8.27;;;6.30;;
15933;SDS011;8066;48.776;11.384;2022-07-25T05:23:37;9.30;;;6.13;;
15933;SDS011;8066;48.776;11.384;2022-07-25T05:26:04;6.82;;;6.00;;
15933;SDS011;8066;48.776;11.384;2022-07-25T05:28:31;9.50;;;6.00;;
15933;SDS011;8066;48.776;11.384;2022-07-25T05:30:58;7.18;;;6.13;;
15933;SDS011;8066;48.776;11.384;2022-07-25T05:33:25;7.00;;;6.03;;
15933;SDS011;8066;48.776;11.384;2022-07-25T05:35:52;6.45;;;5.68;;
15933;SDS011;8066;48.776;11.384;2022-07-25T05:38:20;8.43;;;5.70;;
15933;SDS011;8066;48.776;11.384;2022-07-25T05:40:47;6.82;;;5.60;;
15933;SDS011;8066;48.776;11.384;2022-07-25T05:43:16;6.90;;;5.30;;
15933;SDS011;8066;48.776;11.384;2022-07-25T05:45:43;7.20;;;5.38;;
15933;SDS011;8066;48.776;11.384;2022-07-25T05:48:11;7.15;;;5.25;;
15933;SDS011;8066;48.776;11.384;2022-07-25T05:50:38;8.07;;;5.80;;
15933;SDS011;8066;48.776;11.384;2022-07-25T05:53:05;5.72;;;4.80;;
15933;SDS011;8066;48.776;11.384;2022-07-25T05:55:33;7.05;;;5.80;;
15933;SDS011;8066;48.776;11.384;2022-07-25T05:58:01;8.07;;;5.55;;
15933;SDS011;8066;48.776;11.384;2022-07-25T06:00:28;7.80;;;5.30;;
15933;SDS011;8066;48.776;11.384;2022-07-25T06:02:56;7.15;;;5.10;;
15933;SDS011;8066;48.776;11.384;2022-07-25T06:05:24;7.38;;;5.15;;
15933;SDS011;8066;48.776;11.384;2022-07-25T06:07:51;6.15;;;5.10;;
15933;SDS011;8066;48.776;11.384;2022-07-25T06:10:18;6.65;;;5.47;;
15933;SDS011;8066;48.776;11.384;2022-07-25T06:12:47;7.18;;;5.28;;
15933;SDS011;8066;48.776;11.384;2022-07-25T06:15:15;6.30;;;5.15;;
15933;SDS011;8066;48.776;11.384;2022-07-25T06:17:42;7.63;;;5.43;;
15933;SDS011;8066;48.776;11.384;2022-07-25T06:20:09;5.82;;;5.22;;
15933;SDS011;8066;48.776;11.384;2022-07-25T06:22:37;7.72;;;5.50;;
15933;SDS011;8066;48.776;11.384;2022-07-25T06:25:05;6.10;;;5.22;;
15933;SDS011;8066;48.776;11.384;2022-07-25T06:27:33;6.80;;;5.85;;
15933;SDS011;8066;48.776;11.384;2022-07-25T06:30:03;8.15;;;6.35;;
15933;SDS011;8066;48.776;11.384;2022-07-25T06:32:32;6.85;;;5.72;;
15933;SDS011;8066;48.776;11.384;2022-07-25T06:34:58;7.10;;;6.00;;
15933;SDS011;8066;48.776;11.384;2022-07-25T06:37:26;6.88;;;5.10;;
15933;SDS011;8066;48.776;11.384;2022-07-25T06:39:53;7.80;;;5.97;;
15933;SDS011;8066;48.776;11.384;2022-07-25T06:42:19;6.00;;;5.38;;
15933;SDS011;8066;48.776;11.384;2022-07-25T06:44:46;6.60;;;5.63;;
15933;SDS011;8066;48.776;11.384;2022-07-25T06:47:14;7.13;;;5.57;;
15933;SDS011;8066;48.776;11.384;2022-07-25T06:49:41;6.22;;;5.20;;
15933;SDS011;8066;48.776;11.384;2022-07-25T06:52:09;7.13;;;6.07;;
15933;SDS011;8066;48.776;11.384;2022-07-25T06:54:36;6.60;;;5.40;;
15933;SDS011;8066;48.776;11.384;2022-07-25T06:57:03;6.97;;;5.82;;
15933;SDS011;8066;48.776;11.384;2022-07-25T06:59:30;16.05;;;6.15;;
15933;SDS011;8066;48.776;11.384;2022-07-25T07:01:57;9.82;;;5.95;;
15933;SDS011;8066;48.776;11.384;2022-07-25T07:04:25;6.57;;;5.38;;
15933;SDS011;8066;48.776;11.384;2022-07-25T07:06:52;6.60;;;5.82;;
15933;SDS011;8066;48.776;11.384;2022-07-25T07:09:19;7.13;;;5.63;;
15933;SDS011;8066;48.776;11.384;2022-07-25T07:11:46;7.68;;;5.70;;
15933;SDS011;8066;48.776;11.384;2022-07-25T07:14:13;6.90;;;5.95;;
15933;SDS011;8066;48.776;11.384;2022-07-25T07:16:40;6.20;;;5.38;;
15933;SDS011;8066;48.776;11.384;2022-07-25T07:19:07;9.13;;;5.85;;
15933;SDS011;8066;48.776;11.384;2022-07-25T07:21:37;6.13;;;5.53;;
15933;SDS011;8066;48.776;11.384;2022-07-25T07:24:05;6.43;;;5.63;;
15933;SDS011;8066;48.776;11.384;2022-07-25T07:26:32;7.40;;;6.70;;
15933;SDS011;8066;48.776;11.384;2022-07-25T07:29:00;7.38;;;6.68;;
15933;SDS011;8066;48.776;11.384;2022-07-25T07:31:27;7.97;;;5.80;;
15933;SDS011;8066;48.776;11.384;2022-07-25T07:33:54;7.03;;;6.32;;
15933;SDS011;8066;48.776;11.384;2022-07-25T07:36:23;7.30;;;6.60;;
15933;SDS011;8066;48.776;11.384;2022-07-25T07:38:51;6.28;;;5.68;;
15933;SDS011;8066;48.776;11.384;2022-07-25T07:41:18;7.32;;;6.50;;
15933;SDS011;8066;48.776;11.384;2022-07-25T07:43:46;7.38;;;6.57;;
15933;SDS011;8066;48.776;11.384;2022-07-25T07:46:13;7.10;;;6.50;;
15933;SDS011;8066;48.776;11.384;2022-07-25T07:48:40;7.70;;;7.03;;
15933;SDS011;8066;48.776;11.384;2022-07-25T07:51:07;7.65;;;6.95;;
15933;SDS011;8066;48.776;11.384;2022-07-25T07:53:33;8.02;;;7.07;;
15933;SDS011;8066;48.776;11.384;2022-07-25T07:56:20;7.43;;;6.72;;
15933;SDS011;8066;48.776;11.384;2022-07-25T07:58:47;7.22;;;6.55;;
15933;SDS011;8066;48.776;11.384;2022-07-25T08:01:14;7.13;;;6.43;;
15933;SDS011;8066;48.776;11.384;2022-07-25T08:03:42;9.30;;;7.45;;
15933;SDS011;8066;48.776;11.384;2022-07-25T08:06:08;7.68;;;6.97;;
15933;SDS011;8066;48.776;11.384;2022-07-25T08:08:35;8.43;;;7.72;;
15933;SDS011;8066;48.776;11.384;2022-07-25T08:11:03;7.82;;;7.20;;
15933;SDS011;8066;48.776;11.384;2022-07-25T08:13:32;8.20;;;7.50;;
15933;SDS011;8066;48.776;11.384;2022-07-25T08:16:02;8.43;;;7.63;;
15933;SDS011;8066;48.776;11.384;2022-07-25T08:18:31;7.82;;;7.13;;
15933;SDS011;8066;48.776;11.384;2022-07-25T08:20:59;8.57;;;7.78;;
15933;SDS011;8066;48.776;11.384;2022-07-25T08:23:28;8.85;;;7.97;;
15933;SDS011;8066;48.776;11.384;2022-07-25T08:25:57;9.43;;;8.73;;
15933;SDS011;8066;48.776;11.384;2022-07-25T08:28:24;8.68;;;7.97;;
15933;SDS011;8066;48.776;11.384;2022-07-25T08:30:53;10.25;;;9.35;;
15933;SDS011;8066;48.776;11.384;2022-07-25T08:33:20;10.32;;;9.48;;
15933;SDS011;8066;48.776;11.384;2022-07-25T08:35:48;10.32;;;9.52;;
15933;SDS011;8066;48.776;11.384;2022-07-25T08:38:18;10.93;;;10.02;;
15933;SDS011;8066;48.776;11.384;2022-07-25T08:40:45;10.88;;;10.05;;
15933;SDS011;8066;48.776;11.384;2022-07-25T08:43:13;10.93;;;10.13;;
15933;SDS011;8066;48.776;11.384;2022-07-25T08:45:43;10.80;;;9.85;;
15933;SDS011;8066;48.776;11.384;2022-07-25T08:48:15;11.35;;;10.43;;
15933;SDS011;8066;48.776;11.384;2022-07-25T08:50:43;11.70;;;10.88;;
15933;SDS011;8066;48.776;11.384;2022-07-25T08:53:11;11.63;;;10.82;;
15933;SDS011;8066;48.776;11.384;2022-07-25T08:55:38;12.30;;;11.30;;
15933;SDS011;8066;48.776;11.384;2022-07-25T08:58:07;11.55;;;10.75;;
15933;SDS011;8066;48.776;11.384;2022-07-25T09:00:36;11.57;;;10.77;;
15933;SDS011;8066;48.776;11.384;2022-07-25T09:03:04;11.95;;;11.15;;
15933;SDS011;8066;48.776;11.384;2022-07-25T09:05:33;11.63;;;10.82;;
15933;SDS011;8066;48.776;11.384;2022-07-25T09:08:05;11.48;;;10.13;;
15933;SDS011;8066;48.776;11.384;2022-07-25T09:10:34;9.43;;;8.63;;
15933;SDS011;8066;48.776;11.384;2022-07-25T09:13:02;9.32;;;8.52;;
15933;SDS011;8066;48.776;11.384;2022-07-25T09:15:35;9.30;;;8.13;;
15933;SDS011;8066;48.776;11.384;2022-07-25T09:18:04;8.77;;;8.07;;
15933;SDS011;8066;48.776;11.384;2022-07-25T09:20:41;8.65;;;7.85;;
15933;SDS011;8066;48.776;11.384;2022-07-25T09:23:11;8.07;;;7.28;;
15933;SDS011;8066;48.776;11.384;2022-07-25T09:25:40;9.63;;;7.38;;
15933;SDS011;8066;48.776;11.384;2022-07-25T09:28:08;8.65;;;7.85;;
15933;SDS011;8066;48.776;11.384;2022-07-25T09:30:38;8.77;;;8.07;;
15933;SDS011;8066;48.776;11.384;2022-07-25T09:33:06;8.05;;;7.07;;
15933;SDS011;8066;48.776;11.384;2022-07-25T09:35:33;7.90;;;7.25;;
15933;SDS011;8066;48.776;11.384;2022-07-25T09:38:08;7.85;;;7.15;;
15933;SDS011;8066;48.776;11.384;2022-07-25T09:40:37;9.55;;;8.23;;
15933;SDS011;8066;48.776;11.384;2022-07-25T09:43:04;8.95;;;8.15;;
15933;SDS011;8066;48.776;11.384;2022-07-25T09:45:32;7.68;;;6.90;;
15933;SDS011;8066;48.776;11.384;2022-07-25T09:48:00;8.90;;;8.10;;
15933;SDS011;8066;48.776;11.384;2022-07-25T09:50:30;8.30;;;7.53;;
15933;SDS011;8066;48.776;11.384;2022-07-25T09:52:59;8.38;;;7.57;;
15933;SDS011;8066;48.776;11.384;2022-07-25T09:55:29;8.85;;;7.78;;
15933;SDS011;8066;48.776;11.384;2022-07-25T09:57:56;8.07;;;7.38;;
15933;SDS011;8066;48.776;11.384;2022-07-25T10:00:24;7.60;;;6.90;;
15933;SDS011;8066;48.776;11.384;2022-07-25T10:03:00;7.90;;;7.20;;
15933;SDS011;8066;48.776;11.384;2022-07-25T10:05:46;7.85;;;7.15;;
15933;SDS011;8066;48.776;11.384;2022-07-25T10:08:28;7.88;;;7.15;;
15933;SDS011;8066;48.776;11.384;2022-07-25T10:11:03;7.47;;;6.88;;
15933;SDS011;8066;48.776;11.384;2022-07-25T10:13:34;7.32;;;6.63;;
15933;SDS011;8066;48.776;11.384;2022-07-25T10:16:12;7.85;;;7.15;;
15933;SDS011;8066;48.776;11.384;2022-07-25T10:18:46;7.80;;;7.10;;
15933;SDS011;8066;48.776;11.384;2022-07-25T10:21:16;7.72;;;7.03;;
15933;SDS011;8066;48.776;11.384;2022-07-25T10:23:43;9.15;;;7.75;;
15933;SDS011;8066;48.776;11.384;2022-07-25T10:26:12;8.07;;;7.35;;
15933;SDS011;8066;48.776;11.384;2022-07-25T10:28:42;7.70;;;6.90;;
15933;SDS011;8066;48.776;11.384;2022-07-25T10:31:19;7.97;;;7.28;;
15933;SDS011;8066;48.776;11.384;2022-07-25T10:33:52;7.93;;;7.13;;
15933;SDS011;8066;48.776;11.384;2022-07-25T10:36:22;7.93;;;7.15;;
15933;SDS011;8066;48.776;11.384;2022-07-25T10:38:55;7.43;;;6.72;;
15933;SDS011;8066;48.776;11.384;2022-07-25T10:41:25;7.43;;;6.70;;
15933;SDS011;8066;48.776;11.384;2022-07-25T10:43:55;8.23;;;7.53;;
15933;SDS011;8066;48.776;11.384;2022-07-25T10:46:27;8.27;;;7.47;;
15933;SDS011;8066;48.776;11.384;2022-07-25T10:48:57;8.25;;;7.47;;
15933;SDS011;8066;48.776;11.384;2022-07-25T10:51:26;8.27;;;7.47;;
15933;SDS011;8066;48.776;11.384;2022-07-25T10:53:56;9.23;;;7.82;;
15933;SDS011;8066;48.776;11.384;2022-07-25T10:56:23;7.97;;;7.22;;
15933;SDS011;8066;48.776;11.384;2022-07-25T10:58:55;8.30;;;7.50;;
15933;SDS011;8066;48.776;11.384;2022-07-25T11:01:26;8.02;;;7.28;;
15933;SDS011;8066;48.776;11.384;2022-07-25T11:03:55;8.73;;;8.02;;
15933;SDS011;8066;48.776;11.384;2022-07-25T11:06:28;8.00;;;7.30;;
15933;SDS011;8066;48.776;11.384;2022-07-25T11:08:58;8.38;;;7.57;;
15933;SDS011;8066;48.776;11.384;2022-07-25T11:11:34;8.55;;;7.65;;
15933;SDS011;8066;48.776;11.384;2022-07-25T11:14:04;8.45;;;7.60;;
15933;SDS011;8066;48.776;11.384;2022-07-25T11:16:40;7.95;;;7.25;;
15933;SDS011;8066;48.776;11.384;2022-07-25T11:19:14;8.23;;;7.43;;
15933;SDS011;8066;48.776;11.384;2022-07-25T11:21:46;7.50;;;6.80;;
15933;SDS011;8066;48.776;11.384;2022-07-25T11:24:15;8.00;;;7.30;;
15933;SDS011;8066;48.776;11.384;2022-07-25T11:26:44;7.93;;;7.13;;
15933;SDS011;8066;48.776;11.384;2022-07-25T11:29:17;7.60;;;6.80;;
15933;SDS011;8066;48.776;11.384;2022-07-25T11:31:52;8.55;;;7.75;;
15933;SDS011;8066;48.776;11.384;2022-07-25T11:34:22;8.57;;;7.50;;
15933;SDS011;8066;48.776;11.384;2022-07-25T11:36:51;7.95;;;6.85;;
15933;SDS011;8066;48.776;11.384;2022-07-25T11:39:23;9.13;;;7.00;;
15933;SDS011;8066;48.776;11.384;2022-07-25T11:41:59;8.45;;;7.65;;
15933;SDS011;8066;48.776;11.384;2022-07-25T11:44:29;7.93;;;7.22;;
15933;SDS011;8066;48.776;11.384;2022-07-25T11:46:58;9.10;;;8.30;;
15933;SDS011;8066;48.776;11.384;2022-07-25T11:49:25;9.55;;;8.65;;
15933;SDS011;8066;48.776;11.384;2022-07-25T11:51:52;7.35;;;6.60;;
15933;SDS011;8066;48.776;11.384;2022-07-25T11:54:20;22.08;;;20.05;;
15933;SDS011;8066;48.776;11.384;2022-07-25T11:56:47;30.00;;;27.35;;
15933;SDS011;8066;48.776;11.384;2022-07-25T11:59:15;17.02;;;15.52;;
15933;SDS011;8066;48.776;11.384;2022-07-25T12:01:42;9.48;;;8.57;;
15933;SDS011;8066;48.776;11.384;2022-07-25T12:04:11;8.10;;;7.30;;
15933;SDS011;8066;48.776;11.384;2022-07-25T12:06:40;6.30;;;5.70;;
15933;SDS011;8066;48.776;11.384;2022-07-25T12:09:09;5.97;;;5.43;;
15933;SDS011;8066;48.776;11.384;2022-07-25T12:11:38;6.32;;;5.00;;
15933;SDS011;8066;48.776;11.384;2022-07-25T12:14:05;5.53;;;5.03;;
15933;SDS011;8066;48.776;11.384;2022-07-25T12:16:34;6.20;;;5.60;;
15933;SDS011;8066;48.776;11.384;2022-07-25T12:19:02;6.25;;;5.22;;
15933;SDS011;8066;48.776;11.384;2022-07-25T12:21:33;6.38;;;5.50;;
15933;SDS011;8066;48.776;11.384;2022-07-25T12:24:00;5.50;;;5.00;;
15933;SDS011;8066;48.776;11.384;2022-07-25T12:26:27;6.93;;;4.70;;
15933;SDS011;8066;48.776;11.384;2022-07-25T12:28:54;5.35;;;4.85;;
15933;SDS011;8066;48.776;11.384;2022-07-25T12:31:21;5.68;;;4.47;;
15933;SDS011;8066;48.776;11.384;2022-07-25T12:33:53;5.32;;;4.82;;
15933;SDS011;8066;48.776;11.384;2022-07-25T12:36:20;5.18;;;4.50;;
15933;SDS011;8066;48.776;11.384;2022-07-25T12:38:47;5.65;;;4.70;;
15933;SDS011;8066;48.776;11.384;2022-07-25T12:41:14;6.15;;;4.43;;
15933;SDS011;8066;48.776;11.384;2022-07-25T12:43:46;6.65;;;4.68;;
15933;SDS011;8066;48.776;11.384;2022-07-25T12:46:13;5.20;;;4.70;;
15933;SDS011;8066;48.776;11.384;2022-07-25T12:48:40;4.70;;;4.30;;
15933;SDS011;8066;48.776;11.384;2022-07-25T12:51:09;4.68;;;4.28;;
15933;SDS011;8066;48.776;11.384;2022-07-25T12:53:37;6.35;;;5.20;;
15933;SDS011;8066;48.776;11.384;2022-07-25T12:56:04;6.75;;;5.65;;
15933;SDS011;8066;48.776;11.384;2022-07-25T12:58:31;7.13;;;5.22;;
15933;SDS011;8066;48.776;11.384;2022-07-25T13:00:58;7.93;;;5.75;;
15933;SDS011;8066;48.776;11.384;2022-07-25T13:03:24;6.30;;;5.30;;
15933;SDS011;8066;48.776;11.384;2022-07-25T13:05:51;5.88;;;5.38;;
15933;SDS011;8066;48.776;11.384;2022-07-25T13:08:20;5.75;;;5.25;;
15933;SDS011;8066;48.776;11.384;2022-07-25T13:10:46;6.10;;;5.60;;
15933;SDS011;8066;48.776;11.384;2022-07-25T13:13:13;5.80;;;5.30;;
15933;SDS011;8066;48.776;11.384;2022-07-25T13:15:40;6.40;;;5.80;;
15933;SDS011;8066;48.776;11.384;2022-07-25T13:18:07;5.57;;;5.07;;
15933;SDS011;8066;48.776;11.384;2022-07-25T13:20:34;7.30;;;5.38;;
15933;SDS011;8066;48.776;11.384;2022-07-25T13:23:01;5.28;;;4.85;;
15933;SDS011;8066;48.776;11.384;2022-07-25T13:25:29;5.40;;;4.93;;
15933;SDS011;8066;48.776;11.384;2022-07-25T13:27:58;5.45;;;4.95;;
15933;SDS011;8066;48.776;11.384;2022-07-25T13:30:27;5.25;;;4.75;;
15933;SDS011;8066;48.776;11.384;2022-07-25T13:32:54;5.30;;;4.80;;
15933;SDS011;8066;48.776;11.384;2022-07-25T13:35:21;6.97;;;5.47;;
15933;SDS011;8066;48.776;11.384;2022-07-25T13:37:48;5.43;;;4.82;;
15933;SDS011;8066;48.776;11.384;2022-07-25T13:40:14;5.43;;;4.70;;
15933;SDS011;8066;48.776;11.384;2022-07-25T13:42:43;5.50;;;5.00;;
15933;SDS011;8066;48.776;11.384;2022-07-25T13:45:10;5.22;;;4.72;;
15933;SDS011;8066;48.776;11.384;2022-07-25T13:47:37;5.75;;;5.22;;
15933;SDS011;8066;48.776;11.384;2022-07-25T13:50:04;5.93;;;4.50;;
15933;SDS011;8066;48.776;11.384;2022-07-25T13:52:32;5.28;;;4.70;;
15933;SDS011;8066;48.776;11.384;2022-07-25T13:54:59;7.30;;;5.10;;
15933;SDS011;8066;48.776;11.384;2022-07-25T13:57:26;5.15;;;4.70;;
15933;SDS011;8066;48.776;11.384;2022-07-25T13:59:54;8.15;;;5.13;;
15933;SDS011;8066;48.776;11.384;2022-07-25T14:02:21;5.65;;;5.15;;
15933;SDS011;8066;48.776;11.384;2022-07-25T14:04:48;5.45;;;4.95;;
15933;SDS011;8066;48.776;11.384;2022-07-25T14:07:14;5.03;;;4.55;;
15933;SDS011;8066;48.776;11.384;2022-07-25T14:09:41;5.15;;;4.65;;
15933;SDS011;8066;48.776;11.384;2022-07-25T14:12:08;5.60;;;4.60;;
15933;SDS011;8066;48.776;11.384;2022-07-25T14:14:35;5.47;;;4.97;;
15933;SDS011;8066;48.776;11.384;2022-07-25T14:17:03;5.32;;;4.82;;
15933;SDS011;8066;48.776;11.384;2022-07-25T14:19:30;5.13;;;4.65;;
15933;SDS011;8066;48.776;11.384;2022-07-25T14:21:57;5.18;;;4.68;;
15933;SDS011;8066;48.776;11.384;2022-07-25T14:24:24;5.43;;;4.80;;
15933;SDS011;8066;48.776;11.384;2022-07-25T14:26:51;5.53;;;4.60;;
15933;SDS011;8066;48.776;11.384;2022-07-25T14:29:19;6.15;;;4.88;;
15933;SDS011;8066;48.776;11.384;2022-07-25T14:31:46;4.70;;;4.20;;
15933;SDS011;8066;48.776;11.384;2022-07-25T14:34:14;5.38;;;4.45;;
15933;SDS011;8066;48.776;11.384;2022-07-25T14:36:41;5.05;;;4.45;;
15933;SDS011;8066;48.776;11.384;2022-07-25T14:39:11;6.05;;;4.78;;
15933;SDS011;8066;48.776;11.384;2022-07-25T14:41:39;5.10;;;4.60;;
15933;SDS011;8066;48.776;11.384;2022-07-25T14:44:07;4.53;;;4.13;;
15933;SDS011;8066;48.776;11.384;2022-07-25T14:46:34;4.30;;;3.90;;
15933;SDS011;8066;48.776;11.384;2022-07-25T14:49:01;5.03;;;4.25;;
15933;SDS011;8066;48.776;11.384;2022-07-25T14:51:29;4.80;;;4.07;;